Terminal Aerodrome Forecast
Issued by NWS

Home | Current Version | Previous Version | Text Only | Print | Product List | Glossary On
Versions: 1 2 3 4 5 6 7 8 9 10 11 12 13 14 15 16 17 18 19 20
000
FTUS42 KGSP 191736
TAFAND
TAF
KAND 191736Z 1918/2018 08008KT P6SM SCT120
     FM200500 11005KT 5SM -SHRA OVC035
     FM200800 13004KT 3SM SHRA BR OVC015
     FM201200 17006KT 2SM BR OVC009
     FM201400 22006KT 5SM BR OVC015
     FM201600 23006KT P6SM BKN025=

USA.gov is the U.S. government's official web portal to all federal, state and local government web resources and services.